createdAt,value
2018-09-25T00:02:29.895Z,11.30
2018-09-25T00:05:04.819Z,11.30
2018-09-25T00:07:38.751Z,11.20
2018-09-25T00:10:12.682Z,11.20
2018-09-25T00:12:46.471Z,11.20
2018-09-25T00:15:20.190Z,11.20
2018-09-25T00:17:54.045Z,11.20
2018-09-25T00:20:27.778Z,11.20
2018-09-25T00:23:01.451Z,11.20
2018-09-25T00:25:35.554Z,11.20
2018-09-25T00:28:10.167Z,11.20
2018-09-25T00:30:44.104Z,11.20
2018-09-25T00:33:18.048Z,11.10
2018-09-25T00:35:51.997Z,11.20
2018-09-25T00:38:25.847Z,11.10
2018-09-25T00:40:59.550Z,11.10
2018-09-25T00:43:33.540Z,11.10
2018-09-25T00:46:07.307Z,11.10
2018-09-25T00:48:42.384Z,11.10
2018-09-25T00:51:16.134Z,11.00
2018-09-25T00:53:50.255Z,11.00
2018-09-25T00:56:24.016Z,11.00
2018-09-25T00:58:57.992Z,11.00
2018-09-25T01:01:32.066Z,11.00
2018-09-25T01:04:05.870Z,10.90
2018-09-25T01:06:39.978Z,11.00
2018-09-25T01:09:14.406Z,11.00
2018-09-25T01:11:49.348Z,11.00
2018-09-25T01:14:24.101Z,10.90
2018-09-25T01:16:58.075Z,10.90
2018-09-25T01:19:31.732Z,10.90
2018-09-25T01:22:05.678Z,10.90
2018-09-25T01:24:39.849Z,10.90
2018-09-25T01:27:13.865Z,10.80
2018-09-25T01:29:47.606Z,10.70
2018-09-25T01:32:21.355Z,10.70
2018-09-25T01:34:55.175Z,10.60
2018-09-25T01:37:29.124Z,10.50
2018-09-25T01:40:03.081Z,10.50
2018-09-25T01:42:36.862Z,10.40
2018-09-25T01:45:10.730Z,10.40
2018-09-25T01:47:44.850Z,10.40
2018-09-25T01:50:18.861Z,10.30
2018-09-25T01:52:52.744Z,10.30
2018-09-25T01:55:26.483Z,10.20
2018-09-25T01:58:00.506Z,10.20
2018-09-25T02:00:34.334Z,10.20
2018-09-25T02:03:08.232Z,10.10
2018-09-25T02:05:41.901Z,10.20
2018-09-25T02:08:16.646Z,10.10
2018-09-25T02:10:51.379Z,10.10
2018-09-25T02:13:26.584Z,10.10
2018-09-25T02:16:01.316Z,10.10
2018-09-25T02:18:35.100Z,10.10
2018-09-25T02:21:08.947Z,10.00
2018-09-25T02:23:42.892Z,10.00
2018-09-25T02:26:17.363Z,10.00
2018-09-25T02:28:51.285Z,10.00
2018-09-25T02:31:25.227Z,10.00
2018-09-25T02:33:59.799Z,10.00
2018-09-25T02:36:33.670Z,10.00
2018-09-25T02:39:08.260Z,9.90
2018-09-25T02:41:41.912Z,9.90
2018-09-25T02:44:16.048Z,9.90
2018-09-25T02:46:51.702Z,9.80
2018-09-25T02:49:25.931Z,9.80
2018-09-25T02:52:00.585Z,9.90
2018-09-25T02:54:34.644Z,9.90
2018-09-25T02:57:08.489Z,9.90
2018-09-25T02:59:42.624Z,9.90
2018-09-25T03:02:16.652Z,9.90
2018-09-25T03:04:50.767Z,9.90
2018-09-25T03:07:25.599Z,9.90
2018-09-25T03:09:59.549Z,9.90
2018-09-25T03:12:33.616Z,9.90
2018-09-25T03:15:07.829Z,9.80
2018-09-25T03:17:43.822Z,9.80
2018-09-25T03:20:17.941Z,9.80
2018-09-25T03:22:52.240Z,9.60
2018-09-25T03:25:26.216Z,9.60
2018-09-25T03:28:00.346Z,9.60
2018-09-25T03:30:34.441Z,9.60
2018-09-25T03:33:08.730Z,9.60
2018-09-25T03:35:43.414Z,9.60
2018-09-25T03:38:18.040Z,9.50
2018-09-25T03:40:53.991Z,9.50
2018-09-25T03:43:30.405Z,9.40
2018-09-25T03:46:04.589Z,9.40
2018-09-25T03:48:38.534Z,9.40
2018-09-25T03:51:13.414Z,9.40
2018-09-25T03:53:47.078Z,9.40
2018-09-25T03:56:21.200Z,9.40
2018-09-25T03:58:55.231Z,9.40
2018-09-25T04:01:29.200Z,9.30
2018-09-25T04:04:03.210Z,9.30
2018-09-25T04:06:38.143Z,9.30
2018-09-25T04:09:13.061Z,9.30
2018-09-25T04:11:48.254Z,9.20
2018-09-25T04:14:22.873Z,9.20
2018-09-25T04:16:56.516Z,9.10
2018-09-25T04:19:30.467Z,9.10
2018-09-25T04:22:04.283Z,9.00
2018-09-25T04:24:38.376Z,9.00
2018-09-25T04:27:12.453Z,8.90
2018-09-25T04:29:46.334Z,8.90
2018-09-25T04:32:20.432Z,8.90
2018-09-25T04:34:54.402Z,8.90
2018-09-25T04:37:28.339Z,8.90
2018-09-25T04:40:03.375Z,9.00
2018-09-25T04:42:38.534Z,9.00
2018-09-25T04:45:13.238Z,9.00
2018-09-25T04:47:47.220Z,8.90
2018-09-25T04:50:20.879Z,8.90
2018-09-25T04:52:54.465Z,8.90
2018-09-25T04:55:28.231Z,8.90
2018-09-25T04:58:01.965Z,8.80
2018-09-25T05:00:35.926Z,8.80
2018-09-25T05:03:10.233Z,8.80
2018-09-25T05:05:44.104Z,8.80
2018-09-25T05:08:17.911Z,8.80
2018-09-25T05:10:51.934Z,8.70
2018-09-25T05:13:25.770Z,8.70
2018-09-25T05:15:59.875Z,8.70
2018-09-25T05:18:33.984Z,8.80
2018-09-25T05:21:08.526Z,8.80
2018-09-25T05:23:42.838Z,8.80
2018-09-25T05:26:17.488Z,8.80
2018-09-25T05:28:52.343Z,8.80
2018-09-25T05:31:25.968Z,8.90
2018-09-25T05:33:59.843Z,8.90
2018-09-25T05:36:34.073Z,8.90
2018-09-25T05:39:09.167Z,8.90
2018-09-25T05:41:42.768Z,8.90
2018-09-25T05:44:16.555Z,8.90
2018-09-25T05:46:50.619Z,8.90
2018-09-25T05:49:26.396Z,8.90
2018-09-25T05:52:00.342Z,8.90
2018-09-25T05:54:34.138Z,8.90
2018-09-25T05:57:08.449Z,8.90
2018-09-25T05:59:42.150Z,8.90
2018-09-25T06:02:15.962Z,8.90
2018-09-25T06:04:49.679Z,8.90
2018-09-25T06:07:23.382Z,8.90
2018-09-25T06:09:58.044Z,8.90
2018-09-25T06:12:31.949Z,8.90
2018-09-25T06:15:05.639Z,8.90
2018-09-25T06:17:39.749Z,8.80
2018-09-25T06:20:14.453Z,8.80
2018-09-25T06:22:48.518Z,8.90
2018-09-25T06:25:22.440Z,8.90
2018-09-25T06:27:57.810Z,8.90
2018-09-25T06:30:31.690Z,8.90
2018-09-25T06:33:05.587Z,8.90
2018-09-25T06:35:39.331Z,8.90
2018-09-25T06:38:13.312Z,9.00
2018-09-25T06:40:47.189Z,9.00
2018-09-25T06:43:21.199Z,9.10
2018-09-25T06:45:54.847Z,9.10
2018-09-25T06:48:28.642Z,9.10
2018-09-25T06:51:04.560Z,9.20
2018-09-25T06:53:38.330Z,9.30
2018-09-25T06:56:12.003Z,9.30
2018-09-25T06:58:46.056Z,9.40
2018-09-25T07:01:19.728Z,9.40
2018-09-25T07:03:53.691Z,9.50
2018-09-25T07:06:27.350Z,9.60
2018-09-25T07:09:01.106Z,9.60
2018-09-25T07:11:34.913Z,9.70
2018-09-25T07:14:08.791Z,9.80
2018-09-25T07:16:42.449Z,9.80
2018-09-25T07:19:16.245Z,10.00
2018-09-25T07:21:50.170Z,10.00
2018-09-25T07:24:23.962Z,10.10
2018-09-25T07:26:57.790Z,10.10
2018-09-25T07:29:31.598Z,10.20
2018-09-25T07:32:05.399Z,10.30
2018-09-25T07:34:39.175Z,10.30
2018-09-25T07:37:12.921Z,10.40
2018-09-25T07:39:46.581Z,10.60
2018-09-25T07:42:20.243Z,10.70
2018-09-25T07:44:54.242Z,10.70
2018-09-25T07:47:28.115Z,10.80
2018-09-25T07:50:01.969Z,10.90
2018-09-25T07:52:35.884Z,11.10
2018-09-25T07:55:09.663Z,11.20
2018-09-25T07:57:43.656Z,11.30
2018-09-25T08:00:17.393Z,11.40
2018-09-25T08:02:51.175Z,11.40
2018-09-25T08:05:25.040Z,11.50
2018-09-25T08:07:58.890Z,11.50
2018-09-25T08:10:33.145Z,11.60
2018-09-25T08:13:06.930Z,11.70
2018-09-25T08:15:40.743Z,11.80
2018-09-25T08:18:14.949Z,11.80
2018-09-25T08:20:49.283Z,11.90
2018-09-25T08:23:23.274Z,11.90
2018-09-25T08:25:58.060Z,12.00
2018-09-25T08:28:31.796Z,12.10
2018-09-25T08:31:05.440Z,12.20
2018-09-25T08:33:39.418Z,12.30
2018-09-25T08:36:12.966Z,12.30
2018-09-25T08:38:46.703Z,12.40
2018-09-25T08:41:20.554Z,12.50
2018-09-25T08:43:55.106Z,12.60
2018-09-25T08:46:28.933Z,12.70
2018-09-25T08:49:02.632Z,12.80
2018-09-25T08:51:36.595Z,12.90
2018-09-25T08:54:11.227Z,13.00
2018-09-25T08:56:47.654Z,13.20
2018-09-25T08:59:21.580Z,13.30
2018-09-25T09:01:55.318Z,13.40
2018-09-25T09:04:29.160Z,13.50
2018-09-25T09:07:03.106Z,13.60
2018-09-25T09:09:37.730Z,13.70
2018-09-25T09:12:11.491Z,13.90
2018-09-25T09:14:45.623Z,13.90
2018-09-25T09:17:20.113Z,14.00
2018-09-25T09:19:54.150Z,14.10
2018-09-25T09:22:28.591Z,14.30
2018-09-25T09:25:03.400Z,14.50
2018-09-25T09:27:37.275Z,14.60
2018-09-25T09:30:11.234Z,14.70
2018-09-25T09:32:45.516Z,14.80
2018-09-25T09:35:20.558Z,14.90
2018-09-25T09:37:55.078Z,15.00
2018-09-25T09:40:29.095Z,15.20
2018-09-25T09:43:03.124Z,15.30
2018-09-25T09:45:37.225Z,15.50
2018-09-25T09:48:11.770Z,15.60
2018-09-25T09:50:46.191Z,15.70
2018-09-25T09:53:21.250Z,15.80
2018-09-25T09:55:55.107Z,15.80
2018-09-25T09:58:30.541Z,15.70
2018-09-25T10:01:04.827Z,15.70
2018-09-25T10:03:38.861Z,15.70
2018-09-25T10:06:13.629Z,15.80
2018-09-25T10:08:47.314Z,15.90
2018-09-25T10:11:21.180Z,16.00
2018-09-25T10:13:54.902Z,16.10
2018-09-25T10:16:28.640Z,16.30
2018-09-25T10:19:02.366Z,16.40
2018-09-25T10:21:36.362Z,16.60
2018-09-25T10:24:10.087Z,16.80
2018-09-25T10:26:46.202Z,17.00
2018-09-25T10:29:21.013Z,17.20
2018-09-25T10:31:54.735Z,17.40
2018-09-25T10:34:28.518Z,17.40
2018-09-25T10:37:02.440Z,17.40
2018-09-25T10:39:37.319Z,17.30
2018-09-25T10:42:12.328Z,17.10
2018-09-25T10:44:46.389Z,17.00
2018-09-25T10:47:20.146Z,16.80
2018-09-25T10:49:53.948Z,16.80
2018-09-25T10:52:27.572Z,16.90
2018-09-25T10:55:01.407Z,17.10
2018-09-25T10:57:35.799Z,17.30
2018-09-25T11:00:09.929Z,17.50
2018-09-25T11:02:44.341Z,17.80
2018-09-25T11:05:18.047Z,18.10
2018-09-25T11:07:52.356Z,18.40
2018-09-25T11:10:25.959Z,18.50
2018-09-25T11:12:59.910Z,18.50
2018-09-25T11:15:33.560Z,18.60
2018-09-25T11:18:07.449Z,18.50
2018-09-25T11:20:41.537Z,18.30
2018-09-25T11:23:15.237Z,18.30
2018-09-25T11:25:49.079Z,18.30
2018-09-25T11:28:25.144Z,18.10
2018-09-25T11:31:00.281Z,18.00
2018-09-25T11:33:34.761Z,18.00
2018-09-25T11:36:09.670Z,17.90
2018-09-25T11:38:43.504Z,17.90
2018-09-25T11:41:18.103Z,17.80
2018-09-25T11:43:52.580Z,17.90
2018-09-25T11:46:26.215Z,18.10
2018-09-25T11:48:59.945Z,18.30
2018-09-25T11:51:33.847Z,18.20
2018-09-25T11:54:07.635Z,18.10
2018-09-25T11:56:41.446Z,18.00
2018-09-25T11:59:15.346Z,17.90
2018-09-25T12:01:53.164Z,17.70
2018-09-25T12:04:32.102Z,17.50
2018-09-25T12:07:13.444Z,17.40
2018-09-25T12:09:50.859Z,17.30
2018-09-25T12:12:33.671Z,17.20
2018-09-25T12:15:10.635Z,17.20
2018-09-25T12:17:51.704Z,17.10
2018-09-25T12:20:29.306Z,17.10
2018-09-25T12:23:06.196Z,17.20
2018-09-25T12:25:48.294Z,17.50
2018-09-25T12:32:03.380Z,18.30
2018-09-25T12:34:40.769Z,18.90
2018-09-25T12:37:18.368Z,19.40
2018-09-25T12:39:55.755Z,19.80
2018-09-25T12:42:35.402Z,20.00
2018-09-25T12:45:14.211Z,20.10
2018-09-25T12:47:53.141Z,20.30
2018-09-25T12:50:30.632Z,20.50
2018-09-25T12:53:10.168Z,20.80
2018-09-25T12:55:47.047Z,21.00
2018-09-25T12:58:24.029Z,21.10
2018-09-25T13:01:04.595Z,20.90
2018-09-25T13:03:45.683Z,20.60
2018-09-25T13:06:24.388Z,20.40
2018-09-25T13:09:04.337Z,20.20
2018-09-25T13:11:45.297Z,20.00
2018-09-25T13:14:29.966Z,19.90
2018-09-25T13:17:06.746Z,19.70
2018-09-25T13:19:44.589Z,19.50
2018-09-25T13:22:30.640Z,19.60
2018-09-25T13:25:08.537Z,19.60
2018-09-25T13:27:45.421Z,19.80
2018-09-25T13:30:23.830Z,20.20
2018-09-25T13:33:07.412Z,20.40
2018-09-25T13:35:51.508Z,20.40
2018-09-25T13:38:37.606Z,20.50
2018-09-25T13:41:19.092Z,20.70
2018-09-25T13:44:01.549Z,20.90
2018-09-25T13:46:38.653Z,21.00
2018-09-25T13:49:17.864Z,21.10
2018-09-25T13:51:55.765Z,21.20
2018-09-25T13:54:36.331Z,21.40
2018-09-25T13:57:16.847Z,21.50
2018-09-25T14:00:00.481Z,21.60
2018-09-25T14:02:51.231Z,21.60
2018-09-25T14:05:30.926Z,21.60
2018-09-25T14:08:21.521Z,21.30
2018-09-25T14:11:08.391Z,21.10
2018-09-25T14:13:55.356Z,21.20
2018-09-25T14:16:44.732Z,21.20
2018-09-25T14:19:27.291Z,21.10
2018-09-25T14:22:05.880Z,21.00
2018-09-25T14:24:50.508Z,20.80
2018-09-25T14:27:37.772Z,20.60
2018-09-25T14:30:17.531Z,20.60
2018-09-25T14:32:56.493Z,20.40
2018-09-25T14:35:34.974Z,20.30
2018-09-25T14:38:14.787Z,20.40
2018-09-25T14:40:53.959Z,20.50
2018-09-25T14:43:32.517Z,20.50
2018-09-25T14:46:14.470Z,20.50
2018-09-25T14:48:54.323Z,20.30
2018-09-25T14:51:32.523Z,20.20
2018-09-25T14:54:13.788Z,20.00
2018-09-25T14:56:56.346Z,19.80
2018-09-25T14:59:35.441Z,19.70
2018-09-25T15:02:13.858Z,19.50
2018-09-25T15:04:52.065Z,19.40
2018-09-25T15:07:28.711Z,19.30
2018-09-25T15:10:14.696Z,19.10
2018-09-25T15:12:58.000Z,19.10
2018-09-25T15:15:35.695Z,18.90
2018-09-25T15:18:13.938Z,18.80
2018-09-25T15:20:55.617Z,18.70
2018-09-25T15:23:33.299Z,18.60
2018-09-25T15:26:14.046Z,18.60
2018-09-25T15:28:52.639Z,18.50
2018-09-25T15:31:32.116Z,18.50
2018-09-25T15:34:12.884Z,18.40
2018-09-25T15:36:46.679Z,18.40
2018-09-25T15:39:21.271Z,18.30
2018-09-25T15:41:55.193Z,18.30
2018-09-25T15:44:29.342Z,18.30
2018-09-25T15:47:03.064Z,18.20
2018-09-25T15:49:37.133Z,18.20
2018-09-25T15:52:12.067Z,18.20
2018-09-25T15:54:46.816Z,18.20
2018-09-25T15:57:21.343Z,18.20
2018-09-25T15:59:55.379Z,18.20
2018-09-25T16:02:29.396Z,18.20
2018-09-25T16:05:04.221Z,18.30
2018-09-25T16:07:38.271Z,18.40
2018-09-25T16:10:12.903Z,18.40
2018-09-25T16:12:46.955Z,18.50
2018-09-25T16:15:21.796Z,18.60
2018-09-25T16:17:55.936Z,18.70
2018-09-25T16:20:29.962Z,18.80
2018-09-25T16:23:03.915Z,19.00
2018-09-25T16:25:37.848Z,19.00
2018-09-25T16:28:12.329Z,19.20
2018-09-25T16:30:46.947Z,19.30
2018-09-25T16:33:21.753Z,19.30
2018-09-25T16:35:55.639Z,19.30
2018-09-25T16:38:29.648Z,19.20
2018-09-25T16:41:03.716Z,19.10
2018-09-25T16:43:38.162Z,19.10
2018-09-25T16:46:12.760Z,19.10
2018-09-25T16:48:46.924Z,19.00
2018-09-25T16:51:21.044Z,18.80
2018-09-25T16:53:55.319Z,18.60
2018-09-25T16:56:29.433Z,18.60
2018-09-25T16:59:03.133Z,18.40
2018-09-25T17:01:37.080Z,18.30
2018-09-25T17:04:11.072Z,18.10
2018-09-25T17:06:45.272Z,18.00
2018-09-25T17:09:19.071Z,17.90
2018-09-25T17:11:53.305Z,17.80
2018-09-25T17:14:27.132Z,17.70
2018-09-25T17:17:00.722Z,17.60
2018-09-25T17:19:34.519Z,17.40
2018-09-25T17:22:08.208Z,17.30
2018-09-25T17:24:42.279Z,17.30
2018-09-25T17:27:16.237Z,17.20
2018-09-25T17:29:50.039Z,17.10
2018-09-25T17:32:23.873Z,17.10
2018-09-25T17:34:57.579Z,16.90
2018-09-25T17:37:31.424Z,16.90
2018-09-25T17:40:05.259Z,16.70
2018-09-25T17:42:39.260Z,16.60
2018-09-25T17:45:12.954Z,16.50
2018-09-25T17:47:46.808Z,16.40
2018-09-25T17:50:20.551Z,16.30
2018-09-25T17:52:54.187Z,16.20
2018-09-25T17:55:27.831Z,16.10
2018-09-25T17:58:01.543Z,16.00
2018-09-25T18:00:35.158Z,15.80
2018-09-25T18:03:08.931Z,15.80
2018-09-25T18:05:42.582Z,15.80
2018-09-25T18:08:16.327Z,15.70
2018-09-25T18:10:50.357Z,15.70
2018-09-25T18:13:24.104Z,15.70
2018-09-25T18:15:58.037Z,15.70
2018-09-25T18:18:31.737Z,15.60
2018-09-25T18:21:05.764Z,15.50
2018-09-25T18:23:39.499Z,15.50
2018-09-25T18:26:13.478Z,15.40
2018-09-25T18:28:47.358Z,15.30
2018-09-25T18:31:21.477Z,15.20
2018-09-25T18:33:55.409Z,15.20
2018-09-25T18:36:29.376Z,15.20
2018-09-25T18:39:03.190Z,15.10
2018-09-25T18:41:38.807Z,15.10
2018-09-25T18:44:13.284Z,15.00
2018-09-25T18:46:47.041Z,14.90
2018-09-25T18:49:21.055Z,14.80
2018-09-25T18:51:54.761Z,14.90
2018-09-25T18:54:29.715Z,14.80
2018-09-25T18:57:03.564Z,14.70
2018-09-25T18:59:37.465Z,14.70
2018-09-25T19:02:11.556Z,14.60
2018-09-25T19:04:45.439Z,14.60
2018-09-25T19:07:20.387Z,14.50
2018-09-25T19:09:54.555Z,14.50
2018-09-25T19:12:28.419Z,14.40
2018-09-25T19:15:02.237Z,14.30
2018-09-25T19:17:36.463Z,14.30
2018-09-25T19:20:10.879Z,14.10
2018-09-25T19:22:47.023Z,14.10
2018-09-25T19:25:22.006Z,14.10
2018-09-25T19:27:56.518Z,14.00
2018-09-25T19:30:30.764Z,14.00
2018-09-25T19:33:04.864Z,13.90
2018-09-25T19:35:39.626Z,13.80
2018-09-25T19:38:14.481Z,13.90
2018-09-25T19:40:48.445Z,13.90
2018-09-25T19:43:24.128Z,13.90
2018-09-25T19:45:58.032Z,13.90
2018-09-25T19:48:32.012Z,13.90
2018-09-25T19:51:07.524Z,13.90
2018-09-25T19:53:41.975Z,13.80
2018-09-25T19:56:17.254Z,13.80
2018-09-25T19:58:51.489Z,13.70
2018-09-25T20:01:25.540Z,13.70
2018-09-25T20:04:00.129Z,13.60
2018-09-25T20:06:35.336Z,13.50
2018-09-25T20:09:11.048Z,13.50
2018-09-25T20:11:45.281Z,13.50
2018-09-25T20:14:19.277Z,13.40
2018-09-25T20:16:53.216Z,13.30
2018-09-25T20:19:27.051Z,13.30
2018-09-25T20:22:00.958Z,13.30
2018-09-25T20:24:34.872Z,13.30
2018-09-25T20:27:08.858Z,13.20
2018-09-25T20:29:42.898Z,13.20
2018-09-25T20:32:16.778Z,13.20
2018-09-25T20:34:50.810Z,13.20
2018-09-25T20:37:25.400Z,13.20
2018-09-25T20:40:00.589Z,13.10
2018-09-25T20:42:34.359Z,13.10
2018-09-25T20:45:08.646Z,13.00
2018-09-25T20:47:42.455Z,13.00
2018-09-25T20:50:16.239Z,12.90
2018-09-25T20:52:49.980Z,12.80
2018-09-25T20:55:23.999Z,12.80
2018-09-25T20:57:58.053Z,12.80
2018-09-25T21:00:31.867Z,12.80
2018-09-25T21:03:06.142Z,12.80
2018-09-25T21:05:39.910Z,12.80
2018-09-25T21:08:13.730Z,12.70
2018-09-25T21:10:48.268Z,12.70
2018-09-25T21:13:22.214Z,12.70
2018-09-25T21:15:56.012Z,12.70
2018-09-25T21:18:30.434Z,12.70
2018-09-25T21:21:04.212Z,12.70
2018-09-25T21:23:38.000Z,12.70
2018-09-25T21:26:11.949Z,12.60
2018-09-25T21:28:46.621Z,12.60
2018-09-25T21:31:20.337Z,12.60
2018-09-25T21:33:54.403Z,12.60
2018-09-25T21:36:28.567Z,12.60
2018-09-25T21:39:02.607Z,12.50
2018-09-25T21:41:37.157Z,12.50
2018-09-25T21:44:11.229Z,12.40
2018-09-25T21:46:45.083Z,12.40
2018-09-25T21:49:19.162Z,12.40
2018-09-25T21:51:53.268Z,12.40
2018-09-25T21:54:26.984Z,12.40
2018-09-25T21:57:01.185Z,12.40
2018-09-25T21:59:34.808Z,12.40
2018-09-25T22:02:08.853Z,12.50
2018-09-25T22:04:42.723Z,12.50
2018-09-25T22:07:17.168Z,12.40
2018-09-25T22:09:52.154Z,12.40
2018-09-25T22:12:26.746Z,12.30
2018-09-25T22:15:01.411Z,12.30
2018-09-25T22:17:36.163Z,12.20
2018-09-25T22:20:10.822Z,12.20
2018-09-25T22:22:46.139Z,12.10
2018-09-25T22:25:21.856Z,12.10
2018-09-25T22:27:56.953Z,12.10
2018-09-25T22:30:31.468Z,12.00
2018-09-25T22:33:06.424Z,12.00
2018-09-25T22:35:41.498Z,12.00
2018-09-25T22:38:16.759Z,12.10
2018-09-25T22:40:51.922Z,12.00
2018-09-25T22:43:26.659Z,12.10
2018-09-25T22:46:02.211Z,12.10
2018-09-25T22:48:36.884Z,12.00
2018-09-25T22:51:11.488Z,12.00
2018-09-25T22:53:46.411Z,11.90
2018-09-25T22:56:21.466Z,11.90
2018-09-25T22:58:57.068Z,11.80
2018-09-25T23:01:31.599Z,11.80
2018-09-25T23:04:06.141Z,11.70
2018-09-25T23:06:41.086Z,11.80
2018-09-25T23:09:15.435Z,11.70
2018-09-25T23:11:51.120Z,11.80
2018-09-25T23:14:25.384Z,11.70
2018-09-25T23:17:00.364Z,11.70
2018-09-25T23:19:34.953Z,11.60
2018-09-25T23:22:09.017Z,11.50
2018-09-25T23:24:42.969Z,11.50
2018-09-25T23:27:17.751Z,11.50
2018-09-25T23:29:51.978Z,11.50
2018-09-25T23:32:26.831Z,11.50
2018-09-25T23:35:01.656Z,11.40
2018-09-25T23:37:36.353Z,11.40
2018-09-25T23:40:15.584Z,11.40
2018-09-25T23:43:50.974Z,11.30
2018-09-25T23:48:29.343Z,11.30
2018-09-25T23:51:10.310Z,11.20
2018-09-25T23:53:44.367Z,11.10
2018-09-25T23:56:18.546Z,11.00
2018-09-25T23:59:54.701Z,11.10
